sensor_id;sensor_type;location;lat;lon;timestamp;P1;durP1;ratioP1;P2;durP2;ratioP2
14486;SDS011;7329;50.866;4.366;2022-10-16T00:01:07;3.47;;;2.63;;
14486;SDS011;7329;50.866;4.366;2022-10-16T00:03:11;3.95;;;2.50;;
14486;SDS011;7329;50.866;4.366;2022-10-16T00:05:13;3.97;;;2.42;;
14486;SDS011;7329;50.866;4.366;2022-10-16T00:07:16;3.72;;;2.45;;
14486;SDS011;7329;50.866;4.366;2022-10-16T00:09:18;3.17;;;2.38;;
14486;SDS011;7329;50.866;4.366;2022-10-16T00:11:21;3.35;;;2.35;;
14486;SDS011;7329;50.866;4.366;2022-10-16T00:13:26;3.20;;;2.20;;
14486;SDS011;7329;50.866;4.366;2022-10-16T00:15:28;4.38;;;2.33;;
14486;SDS011;7329;50.866;4.366;2022-10-16T00:17:31;3.03;;;2.22;;
14486;SDS011;7329;50.866;4.366;2022-10-16T00:19:33;2.63;;;2.28;;
14486;SDS011;7329;50.866;4.366;2022-10-16T00:21:35;2.83;;;2.17;;
14486;SDS011;7329;50.866;4.366;2022-10-16T00:23:38;3.17;;;2.38;;
14486;SDS011;7329;50.866;4.366;2022-10-16T00:25:40;2.90;;;2.20;;
14486;SDS011;7329;50.866;4.366;2022-10-16T00:27:42;2.90;;;2.60;;
14486;SDS011;7329;50.866;4.366;2022-10-16T00:29:48;3.10;;;2.45;;
14486;SDS011;7329;50.866;4.366;2022-10-16T00:31:51;3.65;;;2.63;;
14486;SDS011;7329;50.866;4.366;2022-10-16T00:33:53;3.85;;;2.33;;
14486;SDS011;7329;50.866;4.366;2022-10-16T00:35:57;3.00;;;2.55;;
14486;SDS011;7329;50.866;4.366;2022-10-16T00:37:59;3.10;;;2.50;;
14486;SDS011;7329;50.866;4.366;2022-10-16T00:40:01;2.95;;;2.22;;
14486;SDS011;7329;50.866;4.366;2022-10-16T00:42:04;4.45;;;3.00;;
14486;SDS011;7329;50.866;4.366;2022-10-16T00:46:43;3.25;;;2.20;;
14486;SDS011;7329;50.866;4.366;2022-10-16T00:48:46;2.67;;;2.22;;
14486;SDS011;7329;50.866;4.366;2022-10-16T00:50:52;3.60;;;2.50;;
14486;SDS011;7329;50.866;4.366;2022-10-16T00:52:55;2.63;;;2.40;;
14486;SDS011;7329;50.866;4.366;2022-10-16T00:54:58;2.78;;;2.30;;
14486;SDS011;7329;50.866;4.366;2022-10-16T00:57:04;3.67;;;2.55;;
14486;SDS011;7329;50.866;4.366;2022-10-16T00:59:09;2.95;;;2.30;;
14486;SDS011;7329;50.866;4.366;2022-10-16T01:01:16;3.75;;;2.47;;
14486;SDS011;7329;50.866;4.366;2022-10-16T01:03:24;2.85;;;2.33;;
14486;SDS011;7329;50.866;4.366;2022-10-16T01:05:30;3.15;;;2.20;;
14486;SDS011;7329;50.866;4.366;2022-10-16T01:07:41;2.47;;;2.28;;
14486;SDS011;7329;50.866;4.366;2022-10-16T01:09:54;2.72;;;2.42;;
14486;SDS011;7329;50.866;4.366;2022-10-16T01:12:06;4.13;;;2.38;;
14486;SDS011;7329;50.866;4.366;2022-10-16T01:14:14;4.03;;;2.80;;
14486;SDS011;7329;50.866;4.366;2022-10-16T01:16:26;3.42;;;2.30;;
14486;SDS011;7329;50.866;4.366;2022-10-16T01:18:37;3.75;;;2.85;;
14486;SDS011;7329;50.866;4.366;2022-10-16T01:20:45;3.58;;;2.33;;
14486;SDS011;7329;50.866;4.366;2022-10-16T01:22:56;2.92;;;2.20;;
14486;SDS011;7329;50.866;4.366;2022-10-16T01:25:16;3.08;;;2.45;;
14486;SDS011;7329;50.866;4.366;2022-10-16T01:27:27;3.05;;;2.22;;
14486;SDS011;7329;50.866;4.366;2022-10-16T01:29:33;3.00;;;2.22;;
14486;SDS011;7329;50.866;4.366;2022-10-16T01:31:39;3.03;;;2.50;;
14486;SDS011;7329;50.866;4.366;2022-10-16T01:33:43;4.30;;;2.85;;
14486;SDS011;7329;50.866;4.366;2022-10-16T01:35:52;3.03;;;2.20;;
14486;SDS011;7329;50.866;4.366;2022-10-16T01:37:58;2.60;;;2.25;;
14486;SDS011;7329;50.866;4.366;2022-10-16T01:40:05;3.63;;;2.33;;
14486;SDS011;7329;50.866;4.366;2022-10-16T01:42:12;3.22;;;2.30;;
14486;SDS011;7329;50.866;4.366;2022-10-16T01:44:19;2.85;;;2.35;;
14486;SDS011;7329;50.866;4.366;2022-10-16T01:46:26;3.00;;;2.30;;
14486;SDS011;7329;50.866;4.366;2022-10-16T01:48:30;2.35;;;2.13;;
14486;SDS011;7329;50.866;4.366;2022-10-16T01:50:35;3.03;;;2.17;;
14486;SDS011;7329;50.866;4.366;2022-10-16T01:52:42;3.03;;;2.38;;
14486;SDS011;7329;50.866;4.366;2022-10-16T01:54:47;2.40;;;2.08;;
14486;SDS011;7329;50.866;4.366;2022-10-16T01:56:51;3.22;;;2.33;;
14486;SDS011;7329;50.866;4.366;2022-10-16T01:58:54;3.30;;;2.40;;
14486;SDS011;7329;50.866;4.366;2022-10-16T02:01:02;3.28;;;2.20;;
14486;SDS011;7329;50.866;4.366;2022-10-16T02:03:05;2.40;;;2.20;;
14486;SDS011;7329;50.866;4.366;2022-10-16T02:05:10;3.15;;;2.42;;
14486;SDS011;7329;50.866;4.366;2022-10-16T02:07:17;3.03;;;2.17;;
14486;SDS011;7329;50.866;4.366;2022-10-16T02:09:19;2.35;;;2.10;;
14486;SDS011;7329;50.866;4.366;2022-10-16T02:11:22;2.95;;;2.38;;
14486;SDS011;7329;50.866;4.366;2022-10-16T02:13:26;3.40;;;2.20;;
14486;SDS011;7329;50.866;4.366;2022-10-16T02:15:31;2.25;;;2.00;;
14486;SDS011;7329;50.866;4.366;2022-10-16T02:17:35;2.50;;;2.30;;
14486;SDS011;7329;50.866;4.366;2022-10-16T02:19:37;3.47;;;2.60;;
14486;SDS011;7329;50.866;4.366;2022-10-16T02:21:40;2.38;;;2.13;;
14486;SDS011;7329;50.866;4.366;2022-10-16T02:23:50;3.28;;;2.13;;
14486;SDS011;7329;50.866;4.366;2022-10-16T02:26:02;2.85;;;2.28;;
14486;SDS011;7329;50.866;4.366;2022-10-16T02:28:09;2.78;;;2.00;;
14486;SDS011;7329;50.866;4.366;2022-10-16T02:30:18;2.88;;;2.35;;
14486;SDS011;7329;50.866;4.366;2022-10-16T02:32:24;2.85;;;2.25;;
14486;SDS011;7329;50.866;4.366;2022-10-16T02:34:32;2.55;;;2.00;;
14486;SDS011;7329;50.866;4.366;2022-10-16T02:36:35;2.72;;;2.47;;
14486;SDS011;7329;50.866;4.366;2022-10-16T02:38:38;2.70;;;2.38;;
14486;SDS011;7329;50.866;4.366;2022-10-16T02:40:42;2.67;;;2.20;;
14486;SDS011;7329;50.866;4.366;2022-10-16T02:42:44;2.63;;;2.08;;
14486;SDS011;7329;50.866;4.366;2022-10-16T02:44:51;4.05;;;2.55;;
14486;SDS011;7329;50.866;4.366;2022-10-16T02:46:53;2.40;;;2.20;;
14486;SDS011;7329;50.866;4.366;2022-10-16T02:48:56;3.80;;;2.40;;
14486;SDS011;7329;50.866;4.366;2022-10-16T02:50:59;3.20;;;2.10;;
14486;SDS011;7329;50.866;4.366;2022-10-16T02:53:02;2.65;;;2.38;;
14486;SDS011;7329;50.866;4.366;2022-10-16T02:55:04;2.55;;;2.05;;
14486;SDS011;7329;50.866;4.366;2022-10-16T02:57:07;2.65;;;2.10;;
14486;SDS011;7329;50.866;4.366;2022-10-16T02:59:09;3.25;;;2.45;;
14486;SDS011;7329;50.866;4.366;2022-10-16T03:01:12;2.65;;;2.13;;
14486;SDS011;7329;50.866;4.366;2022-10-16T03:03:17;2.45;;;2.22;;
14486;SDS011;7329;50.866;4.366;2022-10-16T03:05:19;3.35;;;2.20;;
14486;SDS011;7329;50.866;4.366;2022-10-16T03:07:22;3.00;;;2.40;;
14486;SDS011;7329;50.866;4.366;2022-10-16T03:09:25;2.83;;;2.45;;
14486;SDS011;7329;50.866;4.366;2022-10-16T03:11:27;2.90;;;2.10;;
14486;SDS011;7329;50.866;4.366;2022-10-16T03:13:29;3.45;;;2.35;;
14486;SDS011;7329;50.866;4.366;2022-10-16T03:15:32;3.33;;;1.83;;
14486;SDS011;7329;50.866;4.366;2022-10-16T03:17:34;3.80;;;2.40;;
14486;SDS011;7329;50.866;4.366;2022-10-16T03:19:36;2.22;;;1.92;;
14486;SDS011;7329;50.866;4.366;2022-10-16T03:21:38;2.63;;;2.30;;
14486;SDS011;7329;50.866;4.366;2022-10-16T03:23:42;4.30;;;2.47;;
14486;SDS011;7329;50.866;4.366;2022-10-16T03:25:44;2.30;;;2.10;;
14486;SDS011;7329;50.866;4.366;2022-10-16T03:27:47;2.72;;;2.22;;
14486;SDS011;7329;50.866;4.366;2022-10-16T03:29:49;3.40;;;1.92;;
14486;SDS011;7329;50.866;4.366;2022-10-16T03:31:51;2.10;;;1.90;;
14486;SDS011;7329;50.866;4.366;2022-10-16T03:33:53;3.17;;;2.10;;
14486;SDS011;7329;50.866;4.366;2022-10-16T03:35:56;3.08;;;2.40;;
14486;SDS011;7329;50.866;4.366;2022-10-16T03:37:58;2.47;;;2.28;;
14486;SDS011;7329;50.866;4.366;2022-10-16T03:40:02;4.13;;;2.13;;
14486;SDS011;7329;50.866;4.366;2022-10-16T03:42:05;3.03;;;2.40;;
14486;SDS011;7329;50.866;4.366;2022-10-16T03:44:07;2.38;;;2.03;;
14486;SDS011;7329;50.866;4.366;2022-10-16T03:46:09;3.08;;;2.38;;
14486;SDS011;7329;50.866;4.366;2022-10-16T03:48:12;2.53;;;2.28;;
14486;SDS011;7329;50.866;4.366;2022-10-16T03:50:14;3.30;;;2.33;;
14486;SDS011;7329;50.866;4.366;2022-10-16T03:52:16;2.72;;;2.28;;
14486;SDS011;7329;50.866;4.366;2022-10-16T03:54:19;2.63;;;2.33;;
14486;SDS011;7329;50.866;4.366;2022-10-16T03:56:24;2.47;;;2.22;;
14486;SDS011;7329;50.866;4.366;2022-10-16T03:58:26;2.40;;;2.17;;
14486;SDS011;7329;50.866;4.366;2022-10-16T04:00:28;4.32;;;2.38;;
14486;SDS011;7329;50.866;4.366;2022-10-16T04:02:30;2.83;;;2.17;;
14486;SDS011;7329;50.866;4.366;2022-10-16T04:04:33;2.65;;;2.15;;
14486;SDS011;7329;50.866;4.366;2022-10-16T04:06:35;2.88;;;2.30;;
14486;SDS011;7329;50.866;4.366;2022-10-16T04:08:37;2.65;;;2.28;;
14486;SDS011;7329;50.866;4.366;2022-10-16T04:10:41;2.97;;;2.35;;
14486;SDS011;7329;50.866;4.366;2022-10-16T04:12:45;2.60;;;2.13;;
14486;SDS011;7329;50.866;4.366;2022-10-16T04:14:47;2.60;;;2.10;;
14486;SDS011;7329;50.866;4.366;2022-10-16T04:16:50;2.70;;;1.98;;
14486;SDS011;7329;50.866;4.366;2022-10-16T04:18:52;2.75;;;2.17;;
14486;SDS011;7329;50.866;4.366;2022-10-16T04:20:54;3.22;;;2.30;;
14486;SDS011;7329;50.866;4.366;2022-10-16T04:22:57;3.33;;;2.22;;
14486;SDS011;7329;50.866;4.366;2022-10-16T04:24:59;2.30;;;2.10;;
14486;SDS011;7329;50.866;4.366;2022-10-16T04:27:01;2.78;;;2.28;;
14486;SDS011;7329;50.866;4.366;2022-10-16T04:29:05;3.67;;;2.00;;
14486;SDS011;7329;50.866;4.366;2022-10-16T04:31:07;2.47;;;1.92;;
14486;SDS011;7329;50.866;4.366;2022-10-16T04:33:10;2.80;;;2.17;;
14486;SDS011;7329;50.866;4.366;2022-10-16T04:35:13;2.10;;;1.88;;
14486;SDS011;7329;50.866;4.366;2022-10-16T04:37:15;2.33;;;1.80;;
14486;SDS011;7329;50.866;4.366;2022-10-16T04:39:18;2.42;;;2.05;;
14486;SDS011;7329;50.866;4.366;2022-10-16T04:41:20;2.63;;;1.95;;
14486;SDS011;7329;50.866;4.366;2022-10-16T04:43:22;3.80;;;2.53;;
14486;SDS011;7329;50.866;4.366;2022-10-16T04:45:26;2.88;;;2.15;;
14486;SDS011;7329;50.866;4.366;2022-10-16T04:47:28;2.70;;;2.10;;
14486;SDS011;7329;50.866;4.366;2022-10-16T04:49:31;2.95;;;1.92;;
14486;SDS011;7329;50.866;4.366;2022-10-16T04:51:33;2.47;;;1.92;;
14486;SDS011;7329;50.866;4.366;2022-10-16T04:53:35;2.13;;;1.88;;
14486;SDS011;7329;50.866;4.366;2022-10-16T04:55:37;2.08;;;1.88;;
14486;SDS011;7329;50.866;4.366;2022-10-16T04:57:40;2.22;;;2.03;;
14486;SDS011;7329;50.866;4.366;2022-10-16T04:59:42;2.42;;;1.92;;
14486;SDS011;7329;50.866;4.366;2022-10-16T05:01:46;2.72;;;2.25;;
14486;SDS011;7329;50.866;4.366;2022-10-16T05:03:49;2.20;;;1.98;;
14486;SDS011;7329;50.866;4.366;2022-10-16T05:05:51;2.45;;;2.20;;
14486;SDS011;7329;50.866;4.366;2022-10-16T05:07:53;3.25;;;2.17;;
14486;SDS011;7329;50.866;4.366;2022-10-16T05:09:56;2.53;;;2.20;;
14486;SDS011;7329;50.866;4.366;2022-10-16T05:11:58;2.55;;;2.05;;
14486;SDS011;7329;50.866;4.366;2022-10-16T05:14:00;2.22;;;1.90;;
14486;SDS011;7329;50.866;4.366;2022-10-16T05:16:03;2.72;;;2.38;;
14486;SDS011;7329;50.866;4.366;2022-10-16T05:18:08;2.95;;;2.10;;
14486;SDS011;7329;50.866;4.366;2022-10-16T05:20:10;2.05;;;1.85;;
14486;SDS011;7329;50.866;4.366;2022-10-16T05:22:13;2.38;;;2.05;;
14486;SDS011;7329;50.866;4.366;2022-10-16T05:24:15;2.55;;;1.98;;
14486;SDS011;7329;50.866;4.366;2022-10-16T05:26:17;2.30;;;2.10;;
14486;SDS011;7329;50.866;4.366;2022-10-16T05:28:20;3.05;;;2.38;;
14486;SDS011;7329;50.866;4.366;2022-10-16T05:30:22;2.00;;;1.77;;
14486;SDS011;7329;50.866;4.366;2022-10-16T05:32:24;2.45;;;2.00;;
14486;SDS011;7329;50.866;4.366;2022-10-16T05:34:28;3.05;;;2.25;;
14486;SDS011;7329;50.866;4.366;2022-10-16T05:36:30;2.22;;;2.03;;
14486;SDS011;7329;50.866;4.366;2022-10-16T05:38:33;2.10;;;1.80;;
14486;SDS011;7329;50.866;4.366;2022-10-16T05:40:35;2.35;;;2.00;;
14486;SDS011;7329;50.866;4.366;2022-10-16T05:42:37;2.47;;;2.10;;
14486;SDS011;7329;50.866;4.366;2022-10-16T05:44:40;3.03;;;2.30;;
14486;SDS011;7329;50.866;4.366;2022-10-16T05:46:42;2.38;;;2.05;;
14486;SDS011;7329;50.866;4.366;2022-10-16T05:48:44;2.40;;;1.98;;
14486;SDS011;7329;50.866;4.366;2022-10-16T05:50:48;2.03;;;1.83;;
14486;SDS011;7329;50.866;4.366;2022-10-16T05:52:57;2.28;;;2.00;;
14486;SDS011;7329;50.866;4.366;2022-10-16T05:54:59;2.55;;;2.35;;
14486;SDS011;7329;50.866;4.366;2022-10-16T05:57:02;2.65;;;2.15;;
14486;SDS011;7329;50.866;4.366;2022-10-16T05:59:06;1.90;;;1.67;;
14486;SDS011;7329;50.866;4.366;2022-10-16T06:01:09;2.55;;;1.80;;
14486;SDS011;7329;50.866;4.366;2022-10-16T06:03:13;2.35;;;2.00;;
14486;SDS011;7329;50.866;4.366;2022-10-16T06:05:15;2.75;;;1.80;;
14486;SDS011;7329;50.866;4.366;2022-10-16T06:07:19;2.85;;;2.05;;
14486;SDS011;7329;50.866;4.366;2022-10-16T06:09:21;2.47;;;1.80;;
14486;SDS011;7329;50.866;4.366;2022-10-16T06:11:24;3.97;;;2.45;;
14486;SDS011;7329;50.866;4.366;2022-10-16T06:13:27;2.63;;;1.83;;
14486;SDS011;7329;50.866;4.366;2022-10-16T06:15:29;2.00;;;1.65;;
14486;SDS011;7329;50.866;4.366;2022-10-16T06:17:32;2.15;;;1.85;;
14486;SDS011;7329;50.866;4.366;2022-10-16T06:19:34;1.70;;;1.50;;
14486;SDS011;7329;50.866;4.366;2022-10-16T06:21:36;2.22;;;1.75;;
14486;SDS011;7329;50.866;4.366;2022-10-16T06:23:40;2.00;;;1.60;;
14486;SDS011;7329;50.866;4.366;2022-10-16T06:25:42;2.55;;;2.00;;
14486;SDS011;7329;50.866;4.366;2022-10-16T06:27:44;2.80;;;2.10;;
14486;SDS011;7329;50.866;4.366;2022-10-16T06:29:47;2.47;;;2.00;;
14486;SDS011;7329;50.866;4.366;2022-10-16T06:31:49;2.97;;;2.15;;
14486;SDS011;7329;50.866;4.366;2022-10-16T06:33:51;2.90;;;2.28;;
14486;SDS011;7329;50.866;4.366;2022-10-16T06:35:59;2.53;;;2.08;;
14486;SDS011;7329;50.866;4.366;2022-10-16T06:38:03;2.80;;;2.22;;
14486;SDS011;7329;50.866;4.366;2022-10-16T06:40:08;2.58;;;2.00;;
14486;SDS011;7329;50.866;4.366;2022-10-16T06:42:10;2.72;;;1.90;;
14486;SDS011;7329;50.866;4.366;2022-10-16T06:44:12;2.30;;;1.90;;
14486;SDS011;7329;50.866;4.366;2022-10-16T06:46:15;2.13;;;1.88;;
14486;SDS011;7329;50.866;4.366;2022-10-16T06:48:19;2.67;;;2.00;;
14486;SDS011;7329;50.866;4.366;2022-10-16T06:50:22;2.55;;;2.15;;
14486;SDS011;7329;50.866;4.366;2022-10-16T06:52:24;2.35;;;1.98;;
14486;SDS011;7329;50.866;4.366;2022-10-16T06:54:31;2.42;;;2.00;;
14486;SDS011;7329;50.866;4.366;2022-10-16T06:56:35;1.70;;;1.60;;
14486;SDS011;7329;50.866;4.366;2022-10-16T06:58:38;1.77;;;1.67;;
14486;SDS011;7329;50.866;4.366;2022-10-16T07:00:40;2.20;;;1.73;;
14486;SDS011;7329;50.866;4.366;2022-10-16T07:02:43;2.75;;;1.98;;
14486;SDS011;7329;50.866;4.366;2022-10-16T07:04:45;2.90;;;1.92;;
14486;SDS011;7329;50.866;4.366;2022-10-16T07:06:47;3.47;;;2.00;;
14486;SDS011;7329;50.866;4.366;2022-10-16T07:08:49;3.00;;;1.70;;
14486;SDS011;7329;50.866;4.366;2022-10-16T07:10:57;3.10;;;1.95;;
14486;SDS011;7329;50.866;4.366;2022-10-16T07:13:02;2.53;;;1.70;;
14486;SDS011;7329;50.866;4.366;2022-10-16T07:15:05;2.30;;;2.10;;
14486;SDS011;7329;50.866;4.366;2022-10-16T07:17:08;2.05;;;1.80;;
14486;SDS011;7329;50.866;4.366;2022-10-16T07:19:10;2.13;;;1.83;;
14486;SDS011;7329;50.866;4.366;2022-10-16T07:21:15;3.28;;;1.90;;
14486;SDS011;7329;50.866;4.366;2022-10-16T07:23:19;2.42;;;1.90;;
14486;SDS011;7329;50.866;4.366;2022-10-16T07:25:22;2.42;;;1.98;;
14486;SDS011;7329;50.866;4.366;2022-10-16T07:27:24;2.10;;;1.90;;
14486;SDS011;7329;50.866;4.366;2022-10-16T07:29:28;1.65;;;1.50;;
14486;SDS011;7329;50.866;4.366;2022-10-16T07:31:30;2.92;;;2.08;;
14486;SDS011;7329;50.866;4.366;2022-10-16T07:33:33;2.20;;;1.85;;
14486;SDS011;7329;50.866;4.366;2022-10-16T07:35:36;2.03;;;1.83;;
14486;SDS011;7329;50.866;4.366;2022-10-16T07:37:38;2.10;;;1.70;;
14486;SDS011;7329;50.866;4.366;2022-10-16T07:39:41;2.45;;;2.05;;
14486;SDS011;7329;50.866;4.366;2022-10-16T07:41:43;2.95;;;2.13;;
14486;SDS011;7329;50.866;4.366;2022-10-16T07:43:45;2.35;;;1.73;;
14486;SDS011;7329;50.866;4.366;2022-10-16T07:45:50;2.42;;;1.73;;
14486;SDS011;7329;50.866;4.366;2022-10-16T07:47:52;2.10;;;1.90;;
14486;SDS011;7329;50.866;4.366;2022-10-16T07:49:54;2.83;;;1.90;;
14486;SDS011;7329;50.866;4.366;2022-10-16T07:51:57;2.80;;;1.73;;
14486;SDS011;7329;50.866;4.366;2022-10-16T07:53:59;3.13;;;1.70;;
14486;SDS011;7329;50.866;4.366;2022-10-16T07:56:03;2.05;;;1.80;;
14486;SDS011;7329;50.866;4.366;2022-10-16T07:58:07;2.38;;;1.70;;
14486;SDS011;7329;50.866;4.366;2022-10-16T08:00:10;2.17;;;1.83;;
14486;SDS011;7329;50.866;4.366;2022-10-16T08:02:15;2.42;;;1.80;;
14486;SDS011;7329;50.866;4.366;2022-10-16T08:04:17;2.70;;;1.85;;
14486;SDS011;7329;50.866;4.366;2022-10-16T08:06:20;2.60;;;1.50;;
14486;SDS011;7329;50.866;4.366;2022-10-16T08:08:23;3.53;;;1.80;;
14486;SDS011;7329;50.866;4.366;2022-10-16T08:10:26;2.33;;;1.73;;
14486;SDS011;7329;50.866;4.366;2022-10-16T08:12:29;2.05;;;1.85;;
14486;SDS011;7329;50.866;4.366;2022-10-16T08:14:32;2.72;;;1.90;;
14486;SDS011;7329;50.866;4.366;2022-10-16T08:16:34;2.22;;;2.00;;
14486;SDS011;7329;50.866;4.366;2022-10-16T08:18:38;2.33;;;1.98;;
14486;SDS011;7329;50.866;4.366;2022-10-16T08:20:42;1.70;;;1.50;;
14486;SDS011;7329;50.866;4.366;2022-10-16T08:22:44;2.10;;;1.65;;
14486;SDS011;7329;50.866;4.366;2022-10-16T08:24:47;3.13;;;2.00;;
14486;SDS011;7329;50.866;4.366;2022-10-16T08:26:49;3.03;;;1.80;;
14486;SDS011;7329;50.866;4.366;2022-10-16T08:28:51;1.98;;;1.77;;
14486;SDS011;7329;50.866;4.366;2022-10-16T08:30:54;2.30;;;1.95;;
14486;SDS011;7329;50.866;4.366;2022-10-16T08:32:57;2.03;;;1.48;;
14486;SDS011;7329;50.866;4.366;2022-10-16T08:35:01;2.55;;;1.85;;
14486;SDS011;7329;50.866;4.366;2022-10-16T08:37:03;2.15;;;1.67;;
14486;SDS011;7329;50.866;4.366;2022-10-16T08:39:08;1.42;;;1.27;;
14486;SDS011;7329;50.866;4.366;2022-10-16T08:43:43;1.83;;;1.70;;
14486;SDS011;7329;50.866;4.366;2022-10-16T08:46:13;2.67;;;1.95;;
14486;SDS011;7329;50.866;4.366;2022-10-16T08:48:23;2.92;;;1.60;;
14486;SDS011;7329;50.866;4.366;2022-10-16T08:50:33;2.45;;;1.80;;
14486;SDS011;7329;50.866;4.366;2022-10-16T08:52:40;1.67;;;1.58;;
14486;SDS011;7329;50.866;4.366;2022-10-16T08:54:46;1.77;;;1.60;;
14486;SDS011;7329;50.866;4.366;2022-10-16T08:56:53;1.75;;;1.60;;
14486;SDS011;7329;50.866;4.366;2022-10-16T08:58:57;2.22;;;1.75;;
14486;SDS011;7329;50.866;4.366;2022-10-16T09:01:00;2.15;;;1.67;;
14486;SDS011;7329;50.866;4.366;2022-10-16T09:03:06;1.55;;;1.42;;
14486;SDS011;7329;50.866;4.366;2022-10-16T09:05:28;2.05;;;1.73;;
14486;SDS011;7329;50.866;4.366;2022-10-16T09:07:46;1.90;;;1.60;;
14486;SDS011;7329;50.866;4.366;2022-10-16T09:10:02;1.88;;;1.50;;
14486;SDS011;7329;50.866;4.366;2022-10-16T09:12:15;4.47;;;1.83;;
14486;SDS011;7329;50.866;4.366;2022-10-16T09:14:34;2.08;;;1.50;;
14486;SDS011;7329;50.866;4.366;2022-10-16T09:16:48;1.70;;;1.50;;
14486;SDS011;7329;50.866;4.366;2022-10-16T09:18:56;2.53;;;1.90;;
14486;SDS011;7329;50.866;4.366;2022-10-16T09:21:08;2.25;;;1.90;;
14486;SDS011;7329;50.866;4.366;2022-10-16T09:23:16;3.13;;;1.88;;
14486;SDS011;7329;50.866;4.366;2022-10-16T09:25:20;2.15;;;1.58;;
14486;SDS011;7329;50.866;4.366;2022-10-16T09:27:23;2.58;;;1.80;;
14486;SDS011;7329;50.866;4.366;2022-10-16T09:29:25;2.30;;;1.77;;
14486;SDS011;7329;50.866;4.366;2022-10-16T09:31:28;2.15;;;1.80;;
14486;SDS011;7329;50.866;4.366;2022-10-16T09:33:33;1.95;;;1.58;;
14486;SDS011;7329;50.866;4.366;2022-10-16T09:35:39;1.45;;;1.35;;
14486;SDS011;7329;50.866;4.366;2022-10-16T09:37:45;2.22;;;1.75;;
14486;SDS011;7329;50.866;4.366;2022-10-16T09:39:51;2.42;;;1.67;;
14486;SDS011;7329;50.866;4.366;2022-10-16T09:41:55;2.95;;;1.88;;
14486;SDS011;7329;50.866;4.366;2022-10-16T09:43:57;2.88;;;1.65;;
14486;SDS011;7329;50.866;4.366;2022-10-16T09:46:02;3.20;;;1.80;;
14486;SDS011;7329;50.866;4.366;2022-10-16T09:48:10;2.40;;;1.73;;
14486;SDS011;7329;50.866;4.366;2022-10-16T09:50:19;2.03;;;1.50;;
14486;SDS011;7329;50.866;4.366;2022-10-16T09:52:25;2.70;;;1.83;;
14486;SDS011;7329;50.866;4.366;2022-10-16T09:54:29;2.13;;;1.80;;
14486;SDS011;7329;50.866;4.366;2022-10-16T09:56:32;2.20;;;1.55;;
14486;SDS011;7329;50.866;4.366;2022-10-16T09:58:36;1.83;;;1.38;;
14486;SDS011;7329;50.866;4.366;2022-10-16T10:00:39;2.35;;;1.52;;
14486;SDS011;7329;50.866;4.366;2022-10-16T10:02:45;1.58;;;1.42;;
14486;SDS011;7329;50.866;4.366;2022-10-16T10:04:49;2.35;;;1.77;;
14486;SDS011;7329;50.866;4.366;2022-10-16T10:06:54;1.95;;;1.63;;
14486;SDS011;7329;50.866;4.366;2022-10-16T10:08:59;1.90;;;1.65;;
14486;SDS011;7329;50.866;4.366;2022-10-16T10:11:06;1.70;;;1.60;;
14486;SDS011;7329;50.866;4.366;2022-10-16T10:13:16;1.85;;;1.30;;
14486;SDS011;7329;50.866;4.366;2022-10-16T10:15:21;2.10;;;1.40;;
14486;SDS011;7329;50.866;4.366;2022-10-16T10:17:25;2.20;;;1.50;;
14486;SDS011;7329;50.866;4.366;2022-10-16T10:19:28;2.13;;;1.60;;
14486;SDS011;7329;50.866;4.366;2022-10-16T10:21:32;2.15;;;1.83;;
14486;SDS011;7329;50.866;4.366;2022-10-16T10:23:35;1.75;;;1.60;;
14486;SDS011;7329;50.866;4.366;2022-10-16T10:25:39;2.40;;;1.67;;
14486;SDS011;7329;50.866;4.366;2022-10-16T10:30:36;2.17;;;1.73;;
14486;SDS011;7329;50.866;4.366;2022-10-16T10:32:44;3.05;;;1.98;;
14486;SDS011;7329;50.866;4.366;2022-10-16T10:35:01;1.73;;;1.40;;
14486;SDS011;7329;50.866;4.366;2022-10-16T10:37:18;2.15;;;1.60;;
14486;SDS011;7329;50.866;4.366;2022-10-16T10:39:32;2.38;;;1.50;;
14486;SDS011;7329;50.866;4.366;2022-10-16T10:44:24;2.20;;;1.50;;
14486;SDS011;7329;50.866;4.366;2022-10-16T10:46:38;1.95;;;1.38;;
14486;SDS011;7329;50.866;4.366;2022-10-16T10:51:12;2.35;;;1.48;;
14486;SDS011;7329;50.866;4.366;2022-10-16T10:53:18;1.45;;;1.30;;
14486;SDS011;7329;50.866;4.366;2022-10-16T10:55:34;1.75;;;1.30;;
14486;SDS011;7329;50.866;4.366;2022-10-16T10:57:43;1.65;;;1.52;;
14486;SDS011;7329;50.866;4.366;2022-10-16T11:00:04;1.95;;;1.40;;
14486;SDS011;7329;50.866;4.366;2022-10-16T11:02:17;2.38;;;1.52;;
14486;SDS011;7329;50.866;4.366;2022-10-16T11:07:00;2.30;;;1.48;;
14486;SDS011;7329;50.866;4.366;2022-10-16T11:09:07;1.55;;;1.25;;
14486;SDS011;7329;50.866;4.366;2022-10-16T11:11:18;1.95;;;1.70;;
14486;SDS011;7329;50.866;4.366;2022-10-16T11:13:28;1.98;;;1.63;;
14486;SDS011;7329;50.866;4.366;2022-10-16T11:15:36;2.47;;;1.48;;
14486;SDS011;7329;50.866;4.366;2022-10-16T11:17:41;1.60;;;1.50;;
14486;SDS011;7329;50.866;4.366;2022-10-16T11:19:46;2.05;;;1.52;;
14486;SDS011;7329;50.866;4.366;2022-10-16T11:21:54;2.20;;;1.50;;
14486;SDS011;7329;50.866;4.366;2022-10-16T11:24:04;1.52;;;1.23;;
14486;SDS011;7329;50.866;4.366;2022-10-16T11:26:16;2.40;;;1.50;;
14486;SDS011;7329;50.866;4.366;2022-10-16T11:28:23;2.17;;;1.70;;
14486;SDS011;7329;50.866;4.366;2022-10-16T11:30:29;2.00;;;1.58;;
14486;SDS011;7329;50.866;4.366;2022-10-16T11:32:40;3.10;;;1.70;;
14486;SDS011;7329;50.866;4.366;2022-10-16T11:34:53;2.45;;;1.30;;
14486;SDS011;7329;50.866;4.366;2022-10-16T11:37:02;2.00;;;1.35;;
14486;SDS011;7329;50.866;4.366;2022-10-16T11:39:14;2.88;;;1.60;;
14486;SDS011;7329;50.866;4.366;2022-10-16T11:41:24;2.00;;;1.40;;
14486;SDS011;7329;50.866;4.366;2022-10-16T11:43:32;3.28;;;1.65;;
14486;SDS011;7329;50.866;4.366;2022-10-16T11:45:39;2.65;;;1.60;;
14486;SDS011;7329;50.866;4.366;2022-10-16T11:47:48;1.80;;;1.40;;
14486;SDS011;7329;50.866;4.366;2022-10-16T11:49:58;2.28;;;1.60;;
14486;SDS011;7329;50.866;4.366;2022-10-16T11:52:05;1.80;;;1.50;;
14486;SDS011;7329;50.866;4.366;2022-10-16T11:54:16;1.88;;;1.50;;
14486;SDS011;7329;50.866;4.366;2022-10-16T11:56:23;1.90;;;1.50;;
14486;SDS011;7329;50.866;4.366;2022-10-16T11:58:27;1.60;;;1.25;;
14486;SDS011;7329;50.866;4.366;2022-10-16T12:00:37;2.80;;;1.63;;
14486;SDS011;7329;50.866;4.366;2022-10-16T12:02:50;2.35;;;1.48;;
14486;SDS011;7329;50.866;4.366;2022-10-16T12:05:02;1.70;;;1.40;;
14486;SDS011;7329;50.866;4.366;2022-10-16T12:07:14;2.30;;;1.60;;
14486;SDS011;7329;50.866;4.366;2022-10-16T12:09:22;1.63;;;1.40;;
14486;SDS011;7329;50.866;4.366;2022-10-16T12:11:34;2.25;;;1.77;;
14486;SDS011;7329;50.866;4.366;2022-10-16T12:13:39;2.53;;;1.63;;
14486;SDS011;7329;50.866;4.366;2022-10-16T12:15:42;1.48;;;1.30;;
14486;SDS011;7329;50.866;4.366;2022-10-16T12:17:45;1.80;;;1.48;;
14486;SDS011;7329;50.866;4.366;2022-10-16T12:19:58;1.98;;;1.58;;
14486;SDS011;7329;50.866;4.366;2022-10-16T12:22:02;2.00;;;1.60;;
14486;SDS011;7329;50.866;4.366;2022-10-16T12:24:05;1.80;;;1.45;;
14486;SDS011;7329;50.866;4.366;2022-10-16T12:26:07;1.90;;;1.60;;
14486;SDS011;7329;50.866;4.366;2022-10-16T12:28:17;1.75;;;1.48;;
14486;SDS011;7329;50.866;4.366;2022-10-16T12:30:22;1.67;;;1.30;;
14486;SDS011;7329;50.866;4.366;2022-10-16T12:32:28;1.58;;;1.48;;
14486;SDS011;7329;50.866;4.366;2022-10-16T12:34:36;1.92;;;1.40;;
14486;SDS011;7329;50.866;4.366;2022-10-16T12:36:44;2.40;;;1.30;;
14486;SDS011;7329;50.866;4.366;2022-10-16T12:38:47;2.15;;;1.50;;
14486;SDS011;7329;50.866;4.366;2022-10-16T12:40:55;1.50;;;1.30;;
14486;SDS011;7329;50.866;4.366;2022-10-16T12:43:10;3.28;;;1.38;;
14486;SDS011;7329;50.866;4.366;2022-10-16T12:45:23;1.63;;;1.40;;
14486;SDS011;7329;50.866;4.366;2022-10-16T12:47:38;2.55;;;1.33;;
14486;SDS011;7329;50.866;4.366;2022-10-16T12:49:51;2.42;;;1.30;;
14486;SDS011;7329;50.866;4.366;2022-10-16T12:51:56;1.92;;;1.55;;
14486;SDS011;7329;50.866;4.366;2022-10-16T12:53:58;2.03;;;1.50;;
14486;SDS011;7329;50.866;4.366;2022-10-16T12:56:04;2.00;;;1.70;;
14486;SDS011;7329;50.866;4.366;2022-10-16T12:58:17;1.80;;;1.55;;
14486;SDS011;7329;50.866;4.366;2022-10-16T13:00:32;2.60;;;1.50;;